sensor_id;sensor_type;location;lat;lon;timestamp;P1;durP1;ratioP1;P2;durP2;ratioP2
5684;SDS011;2865;53.114;9.130;2022-09-09T00:02:21;18.93;;;14.27;;
5684;SDS011;2865;53.114;9.130;2022-09-09T00:04:54;18.90;;;15.90;;
5684;SDS011;2865;53.114;9.130;2022-09-09T00:07:21;21.30;;;14.80;;
5684;SDS011;2865;53.114;9.130;2022-09-09T00:09:47;17.20;;;14.30;;
5684;SDS011;2865;53.114;9.130;2022-09-09T00:12:12;21.70;;;15.47;;
5684;SDS011;2865;53.114;9.130;2022-09-09T00:14:39;18.30;;;15.40;;
5684;SDS011;2865;53.114;9.130;2022-09-09T00:17:07;19.43;;;16.37;;
5684;SDS011;2865;53.114;9.130;2022-09-09T00:19:33;14.67;;;13.13;;
5684;SDS011;2865;53.114;9.130;2022-09-09T00:22:00;16.60;;;14.30;;
5684;SDS011;2865;53.114;9.130;2022-09-09T00:24:32;16.60;;;13.57;;
5684;SDS011;2865;53.114;9.130;2022-09-09T00:26:57;24.33;;;15.00;;
5684;SDS011;2865;53.114;9.130;2022-09-09T00:32:16;21.27;;;13.23;;
5684;SDS011;2865;53.114;9.130;2022-09-09T00:34:46;18.30;;;14.30;;
5684;SDS011;2865;53.114;9.130;2022-09-09T00:37:12;16.83;;;13.93;;
5684;SDS011;2865;53.114;9.130;2022-09-09T00:39:38;16.03;;;14.30;;
5684;SDS011;2865;53.114;9.130;2022-09-09T00:42:13;16.73;;;14.60;;
5684;SDS011;2865;53.114;9.130;2022-09-09T00:44:56;15.33;;;13.73;;
5684;SDS011;2865;53.114;9.130;2022-09-09T00:47:28;17.67;;;14.40;;
5684;SDS011;2865;53.114;9.130;2022-09-09T00:50:00;22.13;;;16.00;;
5684;SDS011;2865;53.114;9.130;2022-09-09T00:52:53;16.20;;;14.27;;
5684;SDS011;2865;53.114;9.130;2022-09-09T00:55:39;17.13;;;14.47;;
5684;SDS011;2865;53.114;9.130;2022-09-09T00:58:06;18.17;;;14.50;;
5684;SDS011;2865;53.114;9.130;2022-09-09T01:00:32;17.20;;;14.00;;
5684;SDS011;2865;53.114;9.130;2022-09-09T01:02:59;16.00;;;14.30;;
5684;SDS011;2865;53.114;9.130;2022-09-09T01:05:25;18.77;;;15.50;;
5684;SDS011;2865;53.114;9.130;2022-09-09T01:07:47;15.87;;;13.57;;
5684;SDS011;2865;53.114;9.130;2022-09-09T01:10:17;15.70;;;13.17;;
5684;SDS011;2865;53.114;9.130;2022-09-09T01:12:41;17.57;;;14.67;;
5684;SDS011;2865;53.114;9.130;2022-09-09T01:15:12;21.00;;;13.13;;
5684;SDS011;2865;53.114;9.130;2022-09-09T01:17:40;18.97;;;14.60;;
5684;SDS011;2865;53.114;9.130;2022-09-09T01:20:04;16.63;;;13.57;;
5684;SDS011;2865;53.114;9.130;2022-09-09T01:22:50;21.47;;;13.90;;
5684;SDS011;2865;53.114;9.130;2022-09-09T01:25:18;17.20;;;13.20;;
5684;SDS011;2865;53.114;9.130;2022-09-09T01:27:58;20.23;;;13.80;;
5684;SDS011;2865;53.114;9.130;2022-09-09T01:30:21;15.50;;;13.70;;
5684;SDS011;2865;53.114;9.130;2022-09-09T01:32:49;14.97;;;12.20;;
5684;SDS011;2865;53.114;9.130;2022-09-09T01:35:48;14.37;;;12.40;;
5684;SDS011;2865;53.114;9.130;2022-09-09T01:37:58;21.20;;;13.90;;
5684;SDS011;2865;53.114;9.130;2022-09-09T01:40:24;18.73;;;12.90;;
5684;SDS011;2865;53.114;9.130;2022-09-09T01:42:49;14.10;;;12.60;;
5684;SDS011;2865;53.114;9.130;2022-09-09T01:45:14;15.73;;;13.93;;
5684;SDS011;2865;53.114;9.130;2022-09-09T01:47:40;14.03;;;12.33;;
5684;SDS011;2865;53.114;9.130;2022-09-09T01:50:06;16.60;;;12.10;;
5684;SDS011;2865;53.114;9.130;2022-09-09T01:52:32;17.23;;;13.63;;
5684;SDS011;2865;53.114;9.130;2022-09-09T01:54:57;16.10;;;13.27;;
5684;SDS011;2865;53.114;9.130;2022-09-09T01:57:23;15.33;;;13.43;;
5684;SDS011;2865;53.114;9.130;2022-09-09T01:59:53;14.73;;;13.20;;
5684;SDS011;2865;53.114;9.130;2022-09-09T02:02:32;18.30;;;13.90;;
5684;SDS011;2865;53.114;9.130;2022-09-09T02:05:06;14.90;;;13.30;;
5684;SDS011;2865;53.114;9.130;2022-09-09T02:07:37;15.47;;;12.83;;
5684;SDS011;2865;53.114;9.130;2022-09-09T02:10:12;21.10;;;14.33;;
5684;SDS011;2865;53.114;9.130;2022-09-09T02:12:41;14.03;;;12.30;;
5684;SDS011;2865;53.114;9.130;2022-09-09T02:15:07;14.40;;;12.50;;
5684;SDS011;2865;53.114;9.130;2022-09-09T02:17:34;15.20;;;12.67;;
5684;SDS011;2865;53.114;9.130;2022-09-09T02:20:03;16.67;;;12.80;;
5684;SDS011;2865;53.114;9.130;2022-09-09T02:22:25;13.87;;;12.40;;
5684;SDS011;2865;53.114;9.130;2022-09-09T02:24:50;13.53;;;11.77;;
5684;SDS011;2865;53.114;9.130;2022-09-09T02:27:15;13.17;;;11.63;;
5684;SDS011;2865;53.114;9.130;2022-09-09T02:29:41;15.30;;;12.03;;
5684;SDS011;2865;53.114;9.130;2022-09-09T02:32:07;15.13;;;11.40;;
5684;SDS011;2865;53.114;9.130;2022-09-09T02:34:33;17.00;;;12.07;;
5684;SDS011;2865;53.114;9.130;2022-09-09T02:36:57;14.13;;;12.60;;
5684;SDS011;2865;53.114;9.130;2022-09-09T02:39:23;14.70;;;12.87;;
5684;SDS011;2865;53.114;9.130;2022-09-09T02:41:48;14.17;;;11.50;;
5684;SDS011;2865;53.114;9.130;2022-09-09T02:44:14;13.50;;;11.80;;
5684;SDS011;2865;53.114;9.130;2022-09-09T02:46:45;16.63;;;12.20;;
5684;SDS011;2865;53.114;9.130;2022-09-09T02:49:17;14.80;;;11.33;;
5684;SDS011;2865;53.114;9.130;2022-09-09T02:52:01;12.83;;;11.03;;
5684;SDS011;2865;53.114;9.130;2022-09-09T02:54:28;12.00;;;10.70;;
5684;SDS011;2865;53.114;9.130;2022-09-09T02:56:53;13.07;;;10.73;;
5684;SDS011;2865;53.114;9.130;2022-09-09T02:59:18;14.37;;;12.60;;
5684;SDS011;2865;53.114;9.130;2022-09-09T03:01:43;12.97;;;11.27;;
5684;SDS011;2865;53.114;9.130;2022-09-09T03:04:08;15.53;;;11.60;;
5684;SDS011;2865;53.114;9.130;2022-09-09T03:06:34;11.20;;;10.03;;
5684;SDS011;2865;53.114;9.130;2022-09-09T03:08:59;19.87;;;12.20;;
5684;SDS011;2865;53.114;9.130;2022-09-09T03:11:25;11.57;;;9.97;;
5684;SDS011;2865;53.114;9.130;2022-09-09T03:13:50;13.70;;;10.63;;
5684;SDS011;2865;53.114;9.130;2022-09-09T03:16:15;12.30;;;11.00;;
5684;SDS011;2865;53.114;9.130;2022-09-09T03:18:41;12.87;;;11.57;;
5684;SDS011;2865;53.114;9.130;2022-09-09T03:21:06;11.17;;;9.50;;
5684;SDS011;2865;53.114;9.130;2022-09-09T03:23:32;14.03;;;10.20;;
5684;SDS011;2865;53.114;9.130;2022-09-09T03:25:57;13.30;;;11.23;;
5684;SDS011;2865;53.114;9.130;2022-09-09T03:28:22;11.57;;;10.03;;
5684;SDS011;2865;53.114;9.130;2022-09-09T03:30:48;12.47;;;10.03;;
5684;SDS011;2865;53.114;9.130;2022-09-09T03:33:13;11.47;;;10.27;;
5684;SDS011;2865;53.114;9.130;2022-09-09T03:35:39;11.13;;;10.03;;
5684;SDS011;2865;53.114;9.130;2022-09-09T03:38:04;9.87;;;8.87;;
5684;SDS011;2865;53.114;9.130;2022-09-09T03:40:30;16.40;;;9.87;;
5684;SDS011;2865;53.114;9.130;2022-09-09T03:42:55;10.47;;;9.43;;
5684;SDS011;2865;53.114;9.130;2022-09-09T03:45:20;10.83;;;9.20;;
5684;SDS011;2865;53.114;9.130;2022-09-09T03:47:46;11.63;;;9.00;;
5684;SDS011;2865;53.114;9.130;2022-09-09T03:50:11;8.60;;;7.77;;
5684;SDS011;2865;53.114;9.130;2022-09-09T03:52:37;9.93;;;8.57;;
5684;SDS011;2865;53.114;9.130;2022-09-09T03:55:02;9.50;;;7.73;;
5684;SDS011;2865;53.114;9.130;2022-09-09T03:57:28;8.53;;;7.70;;
5684;SDS011;2865;53.114;9.130;2022-09-09T03:59:54;11.50;;;7.90;;
5684;SDS011;2865;53.114;9.130;2022-09-09T04:02:19;8.20;;;7.40;;
5684;SDS011;2865;53.114;9.130;2022-09-09T04:04:45;10.00;;;6.80;;
5684;SDS011;2865;53.114;9.130;2022-09-09T04:07:10;10.73;;;7.13;;
5684;SDS011;2865;53.114;9.130;2022-09-09T04:09:36;7.60;;;6.67;;
5684;SDS011;2865;53.114;9.130;2022-09-09T04:12:01;9.43;;;8.07;;
5684;SDS011;2865;53.114;9.130;2022-09-09T04:14:27;7.50;;;6.50;;
5684;SDS011;2865;53.114;9.130;2022-09-09T04:16:52;7.77;;;7.07;;
5684;SDS011;2865;53.114;9.130;2022-09-09T04:19:18;7.10;;;6.30;;
5684;SDS011;2865;53.114;9.130;2022-09-09T04:21:43;11.27;;;6.70;;
5684;SDS011;2865;53.114;9.130;2022-09-09T04:24:09;7.10;;;6.40;;
5684;SDS011;2865;53.114;9.130;2022-09-09T04:26:35;7.20;;;6.60;;
5684;SDS011;2865;53.114;9.130;2022-09-09T04:28:59;11.20;;;6.73;;
5684;SDS011;2865;53.114;9.130;2022-09-09T04:31:25;6.97;;;6.27;;
5684;SDS011;2865;53.114;9.130;2022-09-09T04:33:50;11.80;;;5.80;;
5684;SDS011;2865;53.114;9.130;2022-09-09T04:36:16;6.80;;;6.10;;
5684;SDS011;2865;53.114;9.130;2022-09-09T04:38:41;8.50;;;7.20;;
5684;SDS011;2865;53.114;9.130;2022-09-09T04:41:06;6.80;;;6.17;;
5684;SDS011;2865;53.114;9.130;2022-09-09T04:43:32;8.90;;;7.10;;
5684;SDS011;2865;53.114;9.130;2022-09-09T04:45:57;7.33;;;5.63;;
5684;SDS011;2865;53.114;9.130;2022-09-09T04:48:23;13.13;;;7.47;;
5684;SDS011;2865;53.114;9.130;2022-09-09T04:50:53;7.30;;;6.13;;
5684;SDS011;2865;53.114;9.130;2022-09-09T04:53:26;7.20;;;5.80;;
5684;SDS011;2865;53.114;9.130;2022-09-09T04:55:52;7.33;;;5.60;;
5684;SDS011;2865;53.114;9.130;2022-09-09T04:58:17;7.17;;;5.23;;
5684;SDS011;2865;53.114;9.130;2022-09-09T05:00:42;6.30;;;5.57;;
5684;SDS011;2865;53.114;9.130;2022-09-09T05:03:07;5.33;;;4.70;;
5684;SDS011;2865;53.114;9.130;2022-09-09T05:05:33;6.93;;;4.90;;
5684;SDS011;2865;53.114;9.130;2022-09-09T05:08:01;9.80;;;4.90;;
5684;SDS011;2865;53.114;9.130;2022-09-09T05:10:25;5.27;;;4.77;;
5684;SDS011;2865;53.114;9.130;2022-09-09T05:12:52;7.00;;;5.03;;
5684;SDS011;2865;53.114;9.130;2022-09-09T05:15:17;4.87;;;4.37;;
5684;SDS011;2865;53.114;9.130;2022-09-09T05:17:42;9.90;;;3.90;;
5684;SDS011;2865;53.114;9.130;2022-09-09T05:20:08;8.93;;;4.53;;
5684;SDS011;2865;53.114;9.130;2022-09-09T05:22:34;9.40;;;4.03;;
5684;SDS011;2865;53.114;9.130;2022-09-09T05:24:59;4.67;;;4.13;;
5684;SDS011;2865;53.114;9.130;2022-09-09T05:27:24;5.47;;;4.90;;
5684;SDS011;2865;53.114;9.130;2022-09-09T05:29:50;5.60;;;4.37;;
5684;SDS011;2865;53.114;9.130;2022-09-09T05:32:15;4.30;;;3.63;;
5684;SDS011;2865;53.114;9.130;2022-09-09T05:34:41;4.43;;;4.00;;
5684;SDS011;2865;53.114;9.130;2022-09-09T05:37:06;5.17;;;3.90;;
5684;SDS011;2865;53.114;9.130;2022-09-09T05:39:32;5.90;;;4.53;;
5684;SDS011;2865;53.114;9.130;2022-09-09T05:41:57;7.57;;;3.97;;
5684;SDS011;2865;53.114;9.130;2022-09-09T05:44:22;4.90;;;4.43;;
5684;SDS011;2865;53.114;9.130;2022-09-09T05:46:48;4.20;;;3.90;;
5684;SDS011;2865;53.114;9.130;2022-09-09T05:49:13;4.60;;;4.17;;
5684;SDS011;2865;53.114;9.130;2022-09-09T05:51:39;4.30;;;3.90;;
5684;SDS011;2865;53.114;9.130;2022-09-09T05:54:04;5.10;;;4.50;;
5684;SDS011;2865;53.114;9.130;2022-09-09T05:56:30;3.80;;;3.40;;
5684;SDS011;2865;53.114;9.130;2022-09-09T05:58:55;9.10;;;3.70;;
5684;SDS011;2865;53.114;9.130;2022-09-09T06:01:24;6.60;;;3.50;;
5684;SDS011;2865;53.114;9.130;2022-09-09T06:03:48;5.10;;;3.77;;
5684;SDS011;2865;53.114;9.130;2022-09-09T06:06:15;4.50;;;3.10;;
5684;SDS011;2865;53.114;9.130;2022-09-09T06:08:40;4.03;;;3.43;;
5684;SDS011;2865;53.114;9.130;2022-09-09T06:11:06;5.17;;;3.87;;
5684;SDS011;2865;53.114;9.130;2022-09-09T06:13:31;3.53;;;2.83;;
5684;SDS011;2865;53.114;9.130;2022-09-09T06:15:57;4.17;;;3.63;;
5684;SDS011;2865;53.114;9.130;2022-09-09T06:18:22;6.87;;;3.80;;
5684;SDS011;2865;53.114;9.130;2022-09-09T06:20:57;4.80;;;3.80;;
5684;SDS011;2865;53.114;9.130;2022-09-09T06:23:22;4.97;;;3.67;;
5684;SDS011;2865;53.114;9.130;2022-09-09T06:25:48;3.87;;;3.57;;
5684;SDS011;2865;53.114;9.130;2022-09-09T06:28:13;3.93;;;3.63;;
5684;SDS011;2865;53.114;9.130;2022-09-09T06:30:39;8.80;;;3.83;;
5684;SDS011;2865;53.114;9.130;2022-09-09T06:33:04;4.80;;;4.30;;
5684;SDS011;2865;53.114;9.130;2022-09-09T06:35:29;4.20;;;3.67;;
5684;SDS011;2865;53.114;9.130;2022-09-09T06:37:55;4.00;;;3.70;;
5684;SDS011;2865;53.114;9.130;2022-09-09T06:40:20;6.23;;;4.33;;
5684;SDS011;2865;53.114;9.130;2022-09-09T06:42:46;9.20;;;4.10;;
5684;SDS011;2865;53.114;9.130;2022-09-09T06:45:11;7.67;;;4.47;;
5684;SDS011;2865;53.114;9.130;2022-09-09T06:47:37;4.43;;;4.03;;
5684;SDS011;2865;53.114;9.130;2022-09-09T06:50:02;4.97;;;4.30;;
5684;SDS011;2865;53.114;9.130;2022-09-09T06:52:27;7.23;;;4.27;;
5684;SDS011;2865;53.114;9.130;2022-09-09T06:54:53;4.40;;;4.00;;
5684;SDS011;2865;53.114;9.130;2022-09-09T06:57:18;4.90;;;4.37;;
5684;SDS011;2865;53.114;9.130;2022-09-09T06:59:44;5.00;;;3.63;;
5684;SDS011;2865;53.114;9.130;2022-09-09T07:02:09;5.17;;;4.57;;
5684;SDS011;2865;53.114;9.130;2022-09-09T07:04:34;4.30;;;3.47;;
5684;SDS011;2865;53.114;9.130;2022-09-09T07:07:00;5.10;;;3.60;;
5684;SDS011;2865;53.114;9.130;2022-09-09T07:09:25;4.50;;;4.07;;
5684;SDS011;2865;53.114;9.130;2022-09-09T07:11:51;5.00;;;2.67;;
5684;SDS011;2865;53.114;9.130;2022-09-09T07:14:16;17.80;;;3.07;;
5684;SDS011;2865;53.114;9.130;2022-09-09T07:16:42;3.27;;;2.97;;
5684;SDS011;2865;53.114;9.130;2022-09-09T07:19:07;2.73;;;2.53;;
5684;SDS011;2865;53.114;9.130;2022-09-09T07:21:33;2.80;;;2.60;;
5684;SDS011;2865;53.114;9.130;2022-09-09T07:23:58;4.50;;;2.90;;
5684;SDS011;2865;53.114;9.130;2022-09-09T07:26:25;5.30;;;2.90;;
5684;SDS011;2865;53.114;9.130;2022-09-09T07:28:50;3.03;;;2.83;;
5684;SDS011;2865;53.114;9.130;2022-09-09T07:31:17;5.53;;;2.50;;
5684;SDS011;2865;53.114;9.130;2022-09-09T07:33:40;2.40;;;2.23;;
5684;SDS011;2865;53.114;9.130;2022-09-09T07:36:07;4.00;;;2.30;;
5684;SDS011;2865;53.114;9.130;2022-09-09T07:38:32;3.60;;;2.70;;
5684;SDS011;2865;53.114;9.130;2022-09-09T07:43:29;3.20;;;2.87;;
5684;SDS011;2865;53.114;9.130;2022-09-09T07:45:58;6.03;;;2.90;;
5684;SDS011;2865;53.114;9.130;2022-09-09T07:48:23;2.70;;;2.50;;
5684;SDS011;2865;53.114;9.130;2022-09-09T07:50:48;5.03;;;2.43;;
5684;SDS011;2865;53.114;9.130;2022-09-09T07:53:13;5.63;;;2.50;;
5684;SDS011;2865;53.114;9.130;2022-09-09T07:55:39;8.43;;;3.43;;
5684;SDS011;2865;53.114;9.130;2022-09-09T07:58:04;3.70;;;2.33;;
5684;SDS011;2865;53.114;9.130;2022-09-09T08:00:30;3.70;;;2.50;;
5684;SDS011;2865;53.114;9.130;2022-09-09T08:02:55;2.97;;;2.40;;
5684;SDS011;2865;53.114;9.130;2022-09-09T08:05:20;2.30;;;2.10;;
5684;SDS011;2865;53.114;9.130;2022-09-09T08:07:46;2.53;;;2.43;;
5684;SDS011;2865;53.114;9.130;2022-09-09T08:10:11;3.37;;;2.40;;
5684;SDS011;2865;53.114;9.130;2022-09-09T08:12:37;3.27;;;1.93;;
5684;SDS011;2865;53.114;9.130;2022-09-09T08:15:02;6.33;;;1.90;;
5684;SDS011;2865;53.114;9.130;2022-09-09T08:17:28;2.20;;;2.00;;
5684;SDS011;2865;53.114;9.130;2022-09-09T08:19:54;2.07;;;1.83;;
5684;SDS011;2865;53.114;9.130;2022-09-09T08:22:19;3.73;;;1.97;;
5684;SDS011;2865;53.114;9.130;2022-09-09T08:24:45;6.63;;;1.90;;
5684;SDS011;2865;53.114;9.130;2022-09-09T08:27:10;2.50;;;1.93;;
5684;SDS011;2865;53.114;9.130;2022-09-09T08:29:36;6.80;;;1.97;;
5684;SDS011;2865;53.114;9.130;2022-09-09T08:32:02;4.03;;;1.90;;
5684;SDS011;2865;53.114;9.130;2022-09-09T08:34:27;4.83;;;1.80;;
5684;SDS011;2865;53.114;9.130;2022-09-09T08:36:53;2.57;;;2.20;;
5684;SDS011;2865;53.114;9.130;2022-09-09T08:39:19;2.20;;;1.90;;
5684;SDS011;2865;53.114;9.130;2022-09-09T08:47:02;5.40;;;1.83;;
5684;SDS011;2865;53.114;9.130;2022-09-09T08:52:08;3.13;;;1.70;;
5684;SDS011;2865;53.114;9.130;2022-09-09T08:54:32;5.90;;;1.83;;
5684;SDS011;2865;53.114;9.130;2022-09-09T08:56:57;2.80;;;2.33;;
5684;SDS011;2865;53.114;9.130;2022-09-09T08:59:22;2.47;;;1.60;;
5684;SDS011;2865;53.114;9.130;2022-09-09T09:01:59;3.20;;;1.90;;
5684;SDS011;2865;53.114;9.130;2022-09-09T09:04:38;7.07;;;2.33;;
5684;SDS011;2865;53.114;9.130;2022-09-09T09:07:08;3.20;;;2.27;;
5684;SDS011;2865;53.114;9.130;2022-09-09T09:09:57;5.57;;;2.20;;
5684;SDS011;2865;53.114;9.130;2022-09-09T09:12:28;3.00;;;2.10;;
5684;SDS011;2865;53.114;9.130;2022-09-09T09:14:52;3.63;;;2.80;;
5684;SDS011;2865;53.114;9.130;2022-09-09T09:17:19;2.93;;;2.20;;
5684;SDS011;2865;53.114;9.130;2022-09-09T09:19:44;2.90;;;1.80;;
5684;SDS011;2865;53.114;9.130;2022-09-09T09:22:14;5.37;;;2.30;;
5684;SDS011;2865;53.114;9.130;2022-09-09T09:24:50;5.60;;;2.13;;
5684;SDS011;2865;53.114;9.130;2022-09-09T09:27:21;3.90;;;2.20;;
5684;SDS011;2865;53.114;9.130;2022-09-09T09:29:47;3.37;;;2.20;;
5684;SDS011;2865;53.114;9.130;2022-09-09T09:32:14;3.50;;;2.20;;
5684;SDS011;2865;53.114;9.130;2022-09-09T09:34:38;4.30;;;2.00;;
5684;SDS011;2865;53.114;9.130;2022-09-09T09:37:07;4.27;;;2.17;;
5684;SDS011;2865;53.114;9.130;2022-09-09T09:39:30;2.00;;;1.77;;
5684;SDS011;2865;53.114;9.130;2022-09-09T09:41:54;5.90;;;2.57;;
5684;SDS011;2865;53.114;9.130;2022-09-09T09:44:27;2.10;;;1.60;;
5684;SDS011;2865;53.114;9.130;2022-09-09T09:46:53;3.33;;;2.10;;
5684;SDS011;2865;53.114;9.130;2022-09-09T09:49:18;7.43;;;1.70;;
5684;SDS011;2865;53.114;9.130;2022-09-09T09:51:44;4.40;;;2.17;;
5684;SDS011;2865;53.114;9.130;2022-09-09T09:54:18;2.50;;;1.83;;
5684;SDS011;2865;53.114;9.130;2022-09-09T09:56:51;5.37;;;1.50;;
5684;SDS011;2865;53.114;9.130;2022-09-09T09:59:20;4.77;;;1.90;;
5684;SDS011;2865;53.114;9.130;2022-09-09T10:01:48;3.03;;;1.80;;
5684;SDS011;2865;53.114;9.130;2022-09-09T10:04:15;4.63;;;2.20;;
5684;SDS011;2865;53.114;9.130;2022-09-09T10:06:39;4.73;;;2.00;;
5684;SDS011;2865;53.114;9.130;2022-09-09T10:09:20;4.17;;;1.80;;
5684;SDS011;2865;53.114;9.130;2022-09-09T10:11:33;6.40;;;2.60;;
5684;SDS011;2865;53.114;9.130;2022-09-09T10:14:10;2.27;;;1.50;;
5684;SDS011;2865;53.114;9.130;2022-09-09T10:16:52;2.43;;;1.30;;
5684;SDS011;2865;53.114;9.130;2022-09-09T10:19:32;3.50;;;1.80;;
5684;SDS011;2865;53.114;9.130;2022-09-09T10:27:29;7.77;;;1.90;;
5684;SDS011;2865;53.114;9.130;2022-09-09T10:30:08;2.93;;;1.57;;
5684;SDS011;2865;53.114;9.130;2022-09-09T10:33:09;2.97;;;2.03;;
5684;SDS011;2865;53.114;9.130;2022-09-09T10:35:26;3.60;;;1.63;;
5684;SDS011;2865;53.114;9.130;2022-09-09T10:39:01;1.90;;;1.60;;
5684;SDS011;2865;53.114;9.130;2022-09-09T10:40:38;3.40;;;1.67;;
5684;SDS011;2865;53.114;9.130;2022-09-09T10:43:13;2.30;;;1.47;;
5684;SDS011;2865;53.114;9.130;2022-09-09T10:45:45;5.50;;;1.70;;
5684;SDS011;2865;53.114;9.130;2022-09-09T10:48:11;4.80;;;2.07;;
5684;SDS011;2865;53.114;9.130;2022-09-09T10:50:40;6.23;;;1.60;;
5684;SDS011;2865;53.114;9.130;2022-09-09T10:55:38;3.40;;;1.40;;
5684;SDS011;2865;53.114;9.130;2022-09-09T10:58:03;3.23;;;1.60;;
5684;SDS011;2865;53.114;9.130;2022-09-09T11:00:35;1.73;;;1.23;;
5684;SDS011;2865;53.114;9.130;2022-09-09T11:03:04;6.23;;;1.30;;
5684;SDS011;2865;53.114;9.130;2022-09-09T11:05:33;3.30;;;1.20;;
5684;SDS011;2865;53.114;9.130;2022-09-09T11:08:03;2.50;;;1.70;;
5684;SDS011;2865;53.114;9.130;2022-09-09T11:13:03;3.37;;;1.77;;
5684;SDS011;2865;53.114;9.130;2022-09-09T11:15:29;5.00;;;1.77;;
5684;SDS011;2865;53.114;9.130;2022-09-09T11:17:56;5.93;;;2.23;;
5684;SDS011;2865;53.114;9.130;2022-09-09T11:20:21;2.50;;;1.70;;
5684;SDS011;2865;53.114;9.130;2022-09-09T11:22:50;3.40;;;1.93;;
5684;SDS011;2865;53.114;9.130;2022-09-09T11:25:21;1.83;;;1.40;;
5684;SDS011;2865;53.114;9.130;2022-09-09T11:30:38;3.17;;;1.90;;
5684;SDS011;2865;53.114;9.130;2022-09-09T11:36:14;3.53;;;2.00;;
5684;SDS011;2865;53.114;9.130;2022-09-09T11:38:51;3.00;;;1.70;;
5684;SDS011;2865;53.114;9.130;2022-09-09T11:41:16;5.37;;;3.40;;
5684;SDS011;2865;53.114;9.130;2022-09-09T11:43:43;6.60;;;2.00;;
5684;SDS011;2865;53.114;9.130;2022-09-09T11:46:13;4.17;;;1.97;;
5684;SDS011;2865;53.114;9.130;2022-09-09T11:48:39;1.80;;;1.40;;
5684;SDS011;2865;53.114;9.130;2022-09-09T11:51:06;5.80;;;1.90;;
5684;SDS011;2865;53.114;9.130;2022-09-09T11:53:31;2.70;;;1.53;;
5684;SDS011;2865;53.114;9.130;2022-09-09T11:56:00;3.33;;;2.63;;
5684;SDS011;2865;53.114;9.130;2022-09-09T11:58:24;3.23;;;1.67;;
5684;SDS011;2865;53.114;9.130;2022-09-09T12:00:50;4.20;;;2.50;;
5684;SDS011;2865;53.114;9.130;2022-09-09T12:05:53;3.47;;;1.70;;
5684;SDS011;2865;53.114;9.130;2022-09-09T12:08:21;3.63;;;1.90;;
5684;SDS011;2865;53.114;9.130;2022-09-09T12:10:52;5.97;;;2.30;;
5684;SDS011;2865;53.114;9.130;2022-09-09T12:13:15;2.03;;;1.83;;
5684;SDS011;2865;53.114;9.130;2022-09-09T12:15:46;3.73;;;2.37;;
5684;SDS011;2865;53.114;9.130;2022-09-09T12:18:06;10.10;;;2.13;;
5684;SDS011;2865;53.114;9.130;2022-09-09T12:20:38;5.70;;;2.60;;
5684;SDS011;2865;53.114;9.130;2022-09-09T12:23:14;3.43;;;2.47;;
5684;SDS011;2865;53.114;9.130;2022-09-09T12:28:13;5.73;;;2.57;;
5684;SDS011;2865;53.114;9.130;2022-09-09T12:31:10;10.03;;;2.00;;
5684;SDS011;2865;53.114;9.130;2022-09-09T12:33:37;11.80;;;3.10;;
5684;SDS011;2865;53.114;9.130;2022-09-09T12:36:02;8.13;;;2.60;;
5684;SDS011;2865;53.114;9.130;2022-09-09T12:38:32;4.20;;;2.80;;
5684;SDS011;2865;53.114;9.130;2022-09-09T12:40:57;3.63;;;2.80;;
5684;SDS011;2865;53.114;9.130;2022-09-09T12:43:22;7.93;;;3.37;;
5684;SDS011;2865;53.114;9.130;2022-09-09T12:45:49;4.30;;;2.87;;
5684;SDS011;2865;53.114;9.130;2022-09-09T12:48:14;6.63;;;2.53;;
5684;SDS011;2865;53.114;9.130;2022-09-09T12:50:46;7.63;;;3.00;;
5684;SDS011;2865;53.114;9.130;2022-09-09T12:53:16;9.33;;;3.70;;
5684;SDS011;2865;53.114;9.130;2022-09-09T12:55:50;3.20;;;2.83;;
5684;SDS011;2865;53.114;9.130;2022-09-09T12:58:15;4.53;;;2.53;;
5684;SDS011;2865;53.114;9.130;2022-09-09T13:00:48;4.70;;;3.03;;
5684;SDS011;2865;53.114;9.130;2022-09-09T13:05:38;4.23;;;2.40;;
5684;SDS011;2865;53.114;9.130;2022-09-09T13:08:04;2.80;;;2.20;;
5684;SDS011;2865;53.114;9.130;2022-09-09T13:10:29;2.93;;;2.20;;
5684;SDS011;2865;53.114;9.130;2022-09-09T13:12:54;8.00;;;2.03;;
5684;SDS011;2865;53.114;9.130;2022-09-09T13:15:21;3.43;;;2.23;;
5684;SDS011;2865;53.114;9.130;2022-09-09T13:17:51;3.67;;;2.23;;
5684;SDS011;2865;53.114;9.130;2022-09-09T13:20:17;3.20;;;1.60;;
5684;SDS011;2865;53.114;9.130;2022-09-09T13:22:42;2.70;;;1.90;;
5684;SDS011;2865;53.114;9.130;2022-09-09T13:25:25;3.83;;;2.00;;
5684;SDS011;2865;53.114;9.130;2022-09-09T13:27:55;2.83;;;2.00;;
5684;SDS011;2865;53.114;9.130;2022-09-09T13:30:24;3.47;;;1.97;;
5684;SDS011;2865;53.114;9.130;2022-09-09T13:35:24;3.90;;;2.03;;
5684;SDS011;2865;53.114;9.130;2022-09-09T13:37:50;2.73;;;2.10;;
5684;SDS011;2865;53.114;9.130;2022-09-09T13:40:18;4.00;;;2.60;;
5684;SDS011;2865;53.114;9.130;2022-09-09T13:42:42;3.30;;;3.00;;
5684;SDS011;2865;53.114;9.130;2022-09-09T13:47:40;3.83;;;2.30;;
5684;SDS011;2865;53.114;9.130;2022-09-09T13:50:17;2.20;;;2.00;;
5684;SDS011;2865;53.114;9.130;2022-09-09T13:52:51;2.40;;;2.07;;
5684;SDS011;2865;53.114;9.130;2022-09-09T13:55:16;6.53;;;2.83;;
5684;SDS011;2865;53.114;9.130;2022-09-09T13:57:50;5.10;;;1.83;;
5684;SDS011;2865;53.114;9.130;2022-09-09T14:00:09;2.27;;;1.90;;
5684;SDS011;2865;53.114;9.130;2022-09-09T14:02:32;3.17;;;2.03;;
5684;SDS011;2865;53.114;9.130;2022-09-09T14:04:58;6.70;;;2.07;;
5684;SDS011;2865;53.114;9.130;2022-09-09T14:07:23;3.13;;;1.63;;
5684;SDS011;2865;53.114;9.130;2022-09-09T14:09:48;2.10;;;1.90;;
5684;SDS011;2865;53.114;9.130;2022-09-09T14:12:14;2.10;;;1.97;;
5684;SDS011;2865;53.114;9.130;2022-09-09T14:14:40;2.00;;;1.90;;
5684;SDS011;2865;53.114;9.130;2022-09-09T14:17:05;5.90;;;2.70;;
5684;SDS011;2865;53.114;9.130;2022-09-09T14:19:30;3.40;;;2.20;;
5684;SDS011;2865;53.114;9.130;2022-09-09T14:21:56;1.80;;;1.70;;
5684;SDS011;2865;53.114;9.130;2022-09-09T14:24:21;1.90;;;1.80;;
5684;SDS011;2865;53.114;9.130;2022-09-09T14:26:47;3.50;;;2.33;;
5684;SDS011;2865;53.114;9.130;2022-09-09T14:29:12;5.67;;;2.50;;
5684;SDS011;2865;53.114;9.130;2022-09-09T14:31:38;8.13;;;2.53;;
5684;SDS011;2865;53.114;9.130;2022-09-09T14:34:03;2.60;;;2.40;;
5684;SDS011;2865;53.114;9.130;2022-09-09T14:36:28;3.30;;;3.00;;
5684;SDS011;2865;53.114;9.130;2022-09-09T14:38:54;4.80;;;2.17;;
5684;SDS011;2865;53.114;9.130;2022-09-09T14:41:19;3.40;;;2.43;;
5684;SDS011;2865;53.114;9.130;2022-09-09T14:43:45;3.27;;;2.47;;
5684;SDS011;2865;53.114;9.130;2022-09-09T14:46:11;6.53;;;2.67;;
5684;SDS011;2865;53.114;9.130;2022-09-09T14:48:35;4.93;;;2.70;;
5684;SDS011;2865;53.114;9.130;2022-09-09T14:51:05;6.80;;;3.40;;
5684;SDS011;2865;53.114;9.130;2022-09-09T14:53:33;5.27;;;2.83;;
5684;SDS011;2865;53.114;9.130;2022-09-09T14:56:03;3.47;;;2.90;;
5684;SDS011;2865;53.114;9.130;2022-09-09T14:58:36;2.93;;;2.57;;
5684;SDS011;2865;53.114;9.130;2022-09-09T15:01:03;4.83;;;3.30;;
5684;SDS011;2865;53.114;9.130;2022-09-09T15:03:28;4.23;;;2.83;;
5684;SDS011;2865;53.114;9.130;2022-09-09T15:05:54;6.77;;;3.00;;
5684;SDS011;2865;53.114;9.130;2022-09-09T15:08:19;6.43;;;3.13;;
5684;SDS011;2865;53.114;9.130;2022-09-09T15:10:44;4.73;;;3.70;;
5684;SDS011;2865;53.114;9.130;2022-09-09T15:13:10;3.40;;;2.43;;
5684;SDS011;2865;53.114;9.130;2022-09-09T15:15:35;2.63;;;2.43;;
5684;SDS011;2865;53.114;9.130;2022-09-09T15:18:01;6.07;;;3.43;;
5684;SDS011;2865;53.114;9.130;2022-09-09T15:20:26;4.60;;;2.97;;
5684;SDS011;2865;53.114;9.130;2022-09-09T15:22:51;2.70;;;2.50;;
5684;SDS011;2865;53.114;9.130;2022-09-09T15:25:17;3.50;;;3.20;;
5684;SDS011;2865;53.114;9.130;2022-09-09T15:27:42;3.90;;;3.43;;
5684;SDS011;2865;53.114;9.130;2022-09-09T15:30:08;6.23;;;3.80;;
5684;SDS011;2865;53.114;9.130;2022-09-09T15:32:34;3.97;;;3.00;;
5684;SDS011;2865;53.114;9.130;2022-09-09T15:34:59;4.83;;;3.40;;
5684;SDS011;2865;53.114;9.130;2022-09-09T15:37:25;5.37;;;3.67;;
5684;SDS011;2865;53.114;9.130;2022-09-09T15:39:51;10.87;;;4.10;;
5684;SDS011;2865;53.114;9.130;2022-09-09T15:42:16;6.57;;;4.23;;
5684;SDS011;2865;53.114;9.130;2022-09-09T15:44:41;9.03;;;5.70;;
5684;SDS011;2865;53.114;9.130;2022-09-09T15:47:07;7.90;;;5.20;;
5684;SDS011;2865;53.114;9.130;2022-09-09T15:49:32;7.23;;;5.80;;
5684;SDS011;2865;53.114;9.130;2022-09-09T15:51:58;9.53;;;5.23;;